createdAt,value
2023-03-28T00:01:07.899Z,4.80
2023-03-28T00:03:41.357Z,4.70
2023-03-28T00:06:13.031Z,6.10
2023-03-28T00:08:41.107Z,4.80
2023-03-28T00:11:18.970Z,5.70
2023-03-28T00:13:58.271Z,4.80
2023-03-28T00:16:34.551Z,4.50
2023-03-28T00:19:10.158Z,5.30
2023-03-28T00:21:40.225Z,4.50
2023-03-28T00:24:10.989Z,6.50
2023-03-28T00:26:38.862Z,5.50
2023-03-28T00:29:09.206Z,4.90
2023-03-28T00:31:39.064Z,5.30
2023-03-28T00:34:07.109Z,4.40
2023-03-28T00:36:35.128Z,4.80
2023-03-28T00:39:10.561Z,4.40
2023-03-28T00:41:40.294Z,6.00
2023-03-28T00:44:39.754Z,4.90
2023-03-28T00:50:07.583Z,6.40
2023-03-28T00:53:02.309Z,5.80
2023-03-28T00:55:41.807Z,4.10
2023-03-28T00:58:11.415Z,5.70
2023-03-28T01:00:41.323Z,4.60
2023-03-28T01:03:13.912Z,5.00
2023-03-28T01:05:43.221Z,5.50
2023-03-28T01:08:14.192Z,5.50
2023-03-28T01:10:42.170Z,7.50
2023-03-28T01:13:14.807Z,6.70
2023-03-28T01:15:43.273Z,4.80
2023-03-28T01:18:11.761Z,6.00
2023-03-28T01:20:55.166Z,5.20
2023-03-28T01:23:42.100Z,6.50
2023-03-28T01:26:32.915Z,7.60
2023-03-28T01:30:00.848Z,9.10
2023-03-28T01:32:40.385Z,10.50
2023-03-28T01:35:19.870Z,9.10
2023-03-28T01:37:57.849Z,10.60
2023-03-28T01:40:35.017Z,8.90
2023-03-28T01:43:26.101Z,6.50
2023-03-28T01:46:17.131Z,7.40
2023-03-28T01:49:10.993Z,9.60
2023-03-28T01:51:47.062Z,8.10
2023-03-28T01:54:23.824Z,10.10
2023-03-28T01:57:03.337Z,11.70
2023-03-28T01:59:57.215Z,14.70
2023-03-28T02:02:30.278Z,9.70
2023-03-28T02:05:08.016Z,10.60
2023-03-28T02:07:44.084Z,14.10
2023-03-28T02:10:15.696Z,9.50
2023-03-28T02:13:08.289Z,10.60
2023-03-28T02:15:50.968Z,9.10
2023-03-28T02:18:44.718Z,7.60
2023-03-28T02:21:31.899Z,8.10
2023-03-28T02:24:27.680Z,6.10
2023-03-28T02:27:25.390Z,6.80
2023-03-28T02:30:09.717Z,7.30
2023-03-28T02:32:50.550Z,7.60
2023-03-28T02:35:23.481Z,9.40
2023-03-28T02:38:04.176Z,9.40
2023-03-28T02:41:13.095Z,9.30
2023-03-28T02:43:52.573Z,9.50
2023-03-28T02:46:36.800Z,9.60
2023-03-28T02:49:17.747Z,9.00
2023-03-28T02:51:51.797Z,10.10
2023-03-28T02:54:30.026Z,10.60
2023-03-28T02:57:42.854Z,8.90
2023-03-28T03:00:18.606Z,7.10
2023-03-28T03:02:51.577Z,8.20
2023-03-28T03:05:22.830Z,6.20
2023-03-28T03:07:51.645Z,5.40
2023-03-28T03:10:20.218Z,6.50
2023-03-28T03:12:49.520Z,5.60
2023-03-28T03:15:18.951Z,6.00
2023-03-28T03:17:58.852Z,6.20
2023-03-28T03:20:33.559Z,6.10
2023-03-28T03:23:03.676Z,9.00
2023-03-28T03:25:34.618Z,6.80
2023-03-28T03:28:29.262Z,6.40
2023-03-28T03:30:58.406Z,5.50
2023-03-28T03:33:46.681Z,7.60
2023-03-28T03:36:20.433Z,7.80
2023-03-28T03:38:48.444Z,6.20
2023-03-28T03:41:21.372Z,5.90
2023-03-28T03:43:51.525Z,10.80
2023-03-28T03:46:19.547Z,6.60
2023-03-28T03:48:50.523Z,6.90
2023-03-28T03:51:18.804Z,6.40
2023-03-28T03:53:47.002Z,5.20
2023-03-28T03:56:17.617Z,6.80
2023-03-28T03:59:04.015Z,5.90
2023-03-28T04:01:35.059Z,6.90
2023-03-28T04:04:14.533Z,8.00
2023-03-28T04:07:02.489Z,6.70
2023-03-28T04:09:32.240Z,6.70
2023-03-28T04:12:05.234Z,7.20
2023-03-28T04:14:34.013Z,6.50
2023-03-28T04:17:23.433Z,9.50
2023-03-28T04:19:51.784Z,7.80
2023-03-28T04:22:20.907Z,7.40
2023-03-28T04:24:53.605Z,10.00
2023-03-28T04:27:35.326Z,9.30
2023-03-28T04:30:04.955Z,10.90
2023-03-28T04:32:59.223Z,9.20
2023-03-28T04:35:29.823Z,8.10
2023-03-28T04:37:57.962Z,9.70
2023-03-28T04:40:28.177Z,6.80
2023-03-28T04:43:17.245Z,8.60
2023-03-28T04:45:55.997Z,8.40
2023-03-28T04:48:24.990Z,7.40
2023-03-28T04:50:54.076Z,9.20
2023-03-28T04:53:23.587Z,8.40
2023-03-28T04:56:29.917Z,8.00
2023-03-28T04:59:01.159Z,17.10
2023-03-28T05:01:29.795Z,9.60
2023-03-28T05:04:27.895Z,9.70
2023-03-28T05:06:57.619Z,9.30
2023-03-28T05:09:26.452Z,8.40
2023-03-28T05:11:54.468Z,8.30
2023-03-28T05:14:22.772Z,9.00
2023-03-28T05:16:53.846Z,10.00
2023-03-28T05:19:47.450Z,10.00
2023-03-28T05:22:22.606Z,16.50
2023-03-28T05:24:50.492Z,14.00
2023-03-28T05:27:20.624Z,22.10
2023-03-28T05:29:49.151Z,23.10
2023-03-28T05:32:18.917Z,18.50
2023-03-28T05:34:47.169Z,17.30
2023-03-28T05:37:15.228Z,22.30
2023-03-28T05:39:50.573Z,20.20
2023-03-28T05:42:20.442Z,18.20
2023-03-28T05:44:51.873Z,17.70
2023-03-28T05:47:22.648Z,15.00
2023-03-28T05:49:51.082Z,21.40
2023-03-28T05:52:22.688Z,19.80
2023-03-28T05:54:52.337Z,22.20
2023-03-28T05:57:23.324Z,19.50
2023-03-28T05:59:51.589Z,17.90
2023-03-28T06:02:25.235Z,17.30
2023-03-28T06:04:58.650Z,17.40
2023-03-28T06:07:39.333Z,14.00
2023-03-28T06:10:11.711Z,14.70
2023-03-28T06:12:41.525Z,15.20
2023-03-28T06:15:09.960Z,19.10
2023-03-28T06:17:41.391Z,15.30
2023-03-28T06:20:10.002Z,17.80
2023-03-28T06:22:38.502Z,19.50
2023-03-28T06:25:09.412Z,16.20
2023-03-28T06:27:37.358Z,15.30
2023-03-28T06:30:07.452Z,18.30
2023-03-28T06:32:42.866Z,19.10
2023-03-28T06:35:10.790Z,18.40
2023-03-28T06:37:38.805Z,22.90
2023-03-28T06:40:10.165Z,15.40
2023-03-28T06:42:38.383Z,19.00
2023-03-28T06:45:35.420Z,15.20
2023-03-28T06:48:06.322Z,18.20
2023-03-28T06:51:00.122Z,15.00
2023-03-28T06:53:33.669Z,17.20
2023-03-28T06:56:01.704Z,20.30
2023-03-28T06:58:31.665Z,15.50
2023-03-28T07:01:06.446Z,17.60
2023-03-28T07:04:13.869Z,18.40
2023-03-28T07:06:42.824Z,20.30
2023-03-28T07:09:10.742Z,19.60
2023-03-28T07:11:46.158Z,22.50
2023-03-28T07:14:16.104Z,21.20
2023-03-28T07:16:44.313Z,19.40
2023-03-28T07:19:16.170Z,17.70
2023-03-28T07:21:46.818Z,19.60
2023-03-28T07:24:15.514Z,18.60
2023-03-28T07:27:14.733Z,18.30
2023-03-28T07:29:44.750Z,20.20
2023-03-28T07:32:16.950Z,18.70
2023-03-28T07:34:46.468Z,18.40
2023-03-28T07:37:19.764Z,20.70
2023-03-28T07:40:14.549Z,17.70
2023-03-28T07:42:42.622Z,22.50
2023-03-28T07:45:13.432Z,19.20
2023-03-28T07:47:41.885Z,18.50
2023-03-28T07:50:11.094Z,16.90
2023-03-28T07:52:45.551Z,19.00
2023-03-28T07:55:14.055Z,20.80
2023-03-28T07:57:45.417Z,20.10
2023-03-28T08:00:41.857Z,18.90
2023-03-28T08:03:39.755Z,19.60
2023-03-28T08:06:17.036Z,17.30
2023-03-28T08:08:52.626Z,17.90
2023-03-28T08:11:47.915Z,19.90
2023-03-28T08:14:17.313Z,17.90
2023-03-28T08:16:46.341Z,19.50
2023-03-28T08:19:14.284Z,21.60
2023-03-28T08:22:07.904Z,16.20
2023-03-28T08:24:41.012Z,15.70
2023-03-28T08:29:48.719Z,19.00
2023-03-28T08:32:17.855Z,22.70
2023-03-28T08:34:48.318Z,16.70
2023-03-28T08:37:19.635Z,17.20
2023-03-28T08:39:48.554Z,17.50
2023-03-28T08:42:39.679Z,14.20
2023-03-28T08:45:16.944Z,12.50
2023-03-28T08:48:00.723Z,13.40
2023-03-28T08:50:32.230Z,14.80
2023-03-28T08:53:00.888Z,14.60
2023-03-28T08:55:41.326Z,13.90
2023-03-28T08:58:19.829Z,15.50
2023-03-28T09:00:48.470Z,10.00
2023-03-28T09:03:19.944Z,8.70
2023-03-28T09:06:09.964Z,10.80
2023-03-28T09:08:41.863Z,8.20
2023-03-28T09:13:55.505Z,6.90
2023-03-28T09:16:39.716Z,10.40
2023-03-28T09:19:40.442Z,10.70
2023-03-28T09:22:57.302Z,7.70
2023-03-28T09:25:53.831Z,8.30
2023-03-28T09:28:54.891Z,8.30
2023-03-28T09:31:27.800Z,12.70
2023-03-28T09:33:58.984Z,14.30
2023-03-28T09:36:45.369Z,11.70
2023-03-28T09:39:45.528Z,7.40
2023-03-28T09:42:52.883Z,7.40
2023-03-28T09:46:05.357Z,9.00
2023-03-28T09:48:48.229Z,6.10
2023-03-28T09:51:18.476Z,6.50
2023-03-28T09:53:46.950Z,6.80
2023-03-28T09:56:26.472Z,7.50
2023-03-28T10:01:47.023Z,6.40
2023-03-28T10:04:27.738Z,7.90
2023-03-28T10:07:12.299Z,7.30
2023-03-28T10:09:48.672Z,6.60
2023-03-28T10:12:21.312Z,6.10
2023-03-28T10:14:50.558Z,7.10
2023-03-28T10:17:44.665Z,6.00
2023-03-28T10:20:22.177Z,10.10
2023-03-28T10:22:54.858Z,9.60
2023-03-28T10:25:35.612Z,7.20
2023-03-28T10:28:05.290Z,6.50
2023-03-28T10:30:36.403Z,5.20
2023-03-28T10:33:16.163Z,5.30
2023-03-28T10:36:14.802Z,6.90
2023-03-28T10:38:48.494Z,5.00
2023-03-28T10:41:37.790Z,7.20
2023-03-28T10:44:19.293Z,7.30
2023-03-28T10:47:22.377Z,6.20
2023-03-28T10:49:54.917Z,6.10
2023-03-28T10:52:31.450Z,5.50
2023-03-28T10:55:25.166Z,3.90
2023-03-28T10:58:26.455Z,4.30
2023-03-28T11:01:14.205Z,3.10
2023-03-28T11:04:04.253Z,4.20
2023-03-28T11:06:53.996Z,4.60
2023-03-28T11:09:42.229Z,3.60
2023-03-28T11:13:04.237Z,3.30
2023-03-28T11:15:39.536Z,2.80
2023-03-28T11:18:17.032Z,2.60
2023-03-28T11:21:10.410Z,3.30
2023-03-28T11:23:53.746Z,3.80
2023-03-28T11:27:12.406Z,3.80
2023-03-28T11:30:05.724Z,3.50
2023-03-28T11:32:55.880Z,3.70
2023-03-28T11:35:38.570Z,4.00
2023-03-28T11:38:22.413Z,4.80
2023-03-28T11:40:56.838Z,3.70
2023-03-28T11:43:43.982Z,4.20
2023-03-28T11:46:30.083Z,3.60
2023-03-28T11:49:46.228Z,4.30
2023-03-28T11:52:39.585Z,4.90
2023-03-28T11:55:14.556Z,4.50
2023-03-28T11:58:02.485Z,4.00
2023-03-28T12:00:34.143Z,4.00
2023-03-28T12:03:19.925Z,3.60
2023-03-28T12:06:04.144Z,3.00
2023-03-28T12:08:46.474Z,5.00
2023-03-28T12:11:21.697Z,7.00
2023-03-28T12:14:12.157Z,3.30
2023-03-28T12:16:47.555Z,2.80
2023-03-28T12:19:37.952Z,4.20
2023-03-28T12:22:21.421Z,3.40
2023-03-28T12:24:59.232Z,4.30
2023-03-28T12:27:38.886Z,3.50
2023-03-28T12:30:30.034Z,5.60
2023-03-28T12:33:08.980Z,5.40
2023-03-28T12:35:47.596Z,3.10
2023-03-28T12:38:31.760Z,3.70
2023-03-28T12:41:10.521Z,3.20
2023-03-28T12:43:47.051Z,2.80
2023-03-28T12:46:29.704Z,2.80
2023-03-28T12:49:00.905Z,1.30
2023-03-28T12:51:43.149Z,1.80
2023-03-28T12:54:16.127Z,0.60
2023-03-28T12:56:48.305Z,0.40
2023-03-28T12:59:41.383Z,0.50
2023-03-28T13:02:19.286Z,0.50
2023-03-28T13:05:29.262Z,0.40
2023-03-28T13:08:04.786Z,0.40
2023-03-28T13:10:51.991Z,0.60
2023-03-28T13:13:45.727Z,0.80
2023-03-28T13:16:36.495Z,0.70
2023-03-28T13:19:09.844Z,0.60
2023-03-28T13:21:58.287Z,0.50
2023-03-28T13:24:34.020Z,0.70
2023-03-28T13:27:06.989Z,0.70
2023-03-28T13:29:51.161Z,0.70
2023-03-28T13:32:22.194Z,0.60
2023-03-28T13:34:54.621Z,0.70
2023-03-28T13:37:43.143Z,0.60
2023-03-28T13:40:42.965Z,0.70
2023-03-28T13:46:20.846Z,0.60
2023-03-28T13:48:48.734Z,0.60
2023-03-28T13:51:22.650Z,0.50
2023-03-28T13:53:50.931Z,0.60
2023-03-28T13:56:27.889Z,0.50
2023-03-28T13:58:56.897Z,1.40
2023-03-28T14:01:29.536Z,0.70
2023-03-28T14:03:58.058Z,0.70
2023-03-28T14:06:28.405Z,0.50
2023-03-28T14:08:58.065Z,0.90
2023-03-28T14:11:32.443Z,0.80
2023-03-28T14:14:26.024Z,0.90
2023-03-28T14:16:53.926Z,1.00
2023-03-28T14:19:31.145Z,0.90
2023-03-28T14:22:21.235Z,2.20
2023-03-28T14:24:51.354Z,0.90
2023-03-28T14:27:39.111Z,1.00
2023-03-28T14:30:28.712Z,1.90
2023-03-28T14:33:01.621Z,1.10
2023-03-28T14:35:31.339Z,1.00
2023-03-28T14:38:01.110Z,0.80
2023-03-28T14:40:32.229Z,1.00
2023-03-28T14:43:19.542Z,1.00
2023-03-28T14:45:50.423Z,0.90
2023-03-28T14:48:25.018Z,0.90
2023-03-28T14:50:53.803Z,0.80
2023-03-28T14:53:24.644Z,0.70
2023-03-28T14:55:54.664Z,1.00
2023-03-28T14:58:24.075Z,0.90
2023-03-28T15:00:54.380Z,0.70
2023-03-28T15:03:35.300Z,0.70
2023-03-28T15:06:05.696Z,1.90
2023-03-28T15:08:36.141Z,1.50
2023-03-28T15:11:08.245Z,1.10
2023-03-28T15:13:39.995Z,1.10
2023-03-28T15:16:08.410Z,1.60
2023-03-28T15:22:01.637Z,1.70
2023-03-28T15:24:30.730Z,1.50
2023-03-28T15:27:02.052Z,1.30
2023-03-28T15:29:36.924Z,1.00
2023-03-28T15:32:06.739Z,1.00
2023-03-28T15:34:48.617Z,1.20
2023-03-28T15:37:20.143Z,1.10
2023-03-28T15:39:52.627Z,0.80
2023-03-28T15:42:20.977Z,1.40
2023-03-28T15:44:58.094Z,1.10
2023-03-28T15:47:30.591Z,0.80
2023-03-28T15:50:03.343Z,0.90
2023-03-28T15:52:34.369Z,1.40
2023-03-28T15:55:02.693Z,1.30
2023-03-28T15:57:31.890Z,2.30
2023-03-28T16:00:00.984Z,1.10
2023-03-28T16:02:32.476Z,2.40
2023-03-28T16:05:32.013Z,0.70
2023-03-28T16:08:00.648Z,1.00
2023-03-28T16:10:30.056Z,1.10
2023-03-28T16:13:23.984Z,1.30
2023-03-28T16:16:00.749Z,0.70
2023-03-28T16:18:40.134Z,0.80
2023-03-28T16:21:14.996Z,0.80
2023-03-28T16:23:43.584Z,0.80
2023-03-28T16:26:11.722Z,0.90
2023-03-28T16:28:40.015Z,1.40
2023-03-28T16:31:13.434Z,1.10
2023-03-28T16:33:42.031Z,1.10
2023-03-28T16:36:12.645Z,2.40
2023-03-28T16:38:42.917Z,1.10
2023-03-28T16:41:11.194Z,0.80
2023-03-28T16:43:40.445Z,1.30
2023-03-28T16:48:36.779Z,1.70
2023-03-28T16:51:06.722Z,2.10
2023-03-28T16:53:35.219Z,1.60
2023-03-28T16:56:04.244Z,1.20
2023-03-28T16:58:32.170Z,1.20
2023-03-28T17:01:06.012Z,1.20
2023-03-28T17:03:35.240Z,1.20
2023-03-28T17:06:08.166Z,1.60
2023-03-28T17:08:36.559Z,1.30
2023-03-28T17:11:07.088Z,2.60
2023-03-28T17:13:38.990Z,1.30
2023-03-28T17:16:08.493Z,2.80
2023-03-28T17:18:38.017Z,2.10
2023-03-28T17:21:08.088Z,2.10
2023-03-28T17:23:37.582Z,2.40
2023-03-28T17:26:07.887Z,1.30
2023-03-28T17:28:39.056Z,3.20
2023-03-28T17:31:11.176Z,1.90
2023-03-28T17:33:39.290Z,1.50
2023-03-28T17:36:21.070Z,2.40
2023-03-28T17:38:50.937Z,1.50
2023-03-28T17:41:19.198Z,2.50
2023-03-28T17:43:47.382Z,2.30
2023-03-28T17:46:16.362Z,1.80
2023-03-28T17:48:44.675Z,1.20
2023-03-28T17:51:15.305Z,2.00
2023-03-28T17:53:44.534Z,1.30
2023-03-28T17:56:12.649Z,1.40
2023-03-28T17:58:40.714Z,1.90
2023-03-28T18:01:13.626Z,1.50
2023-03-28T18:03:42.650Z,1.70
2023-03-28T18:06:19.604Z,1.30
2023-03-28T18:08:47.800Z,2.10
2023-03-28T18:11:17.785Z,1.40
2023-03-28T18:13:46.872Z,1.80
2023-03-28T18:16:15.147Z,1.50
2023-03-28T18:18:43.473Z,1.30
2023-03-28T18:21:11.722Z,2.10
2023-03-28T18:23:39.930Z,1.30
2023-03-28T18:26:08.316Z,1.30
2023-03-28T18:28:40.403Z,1.10
2023-03-28T18:31:13.136Z,3.10
2023-03-28T18:33:42.126Z,1.30
2023-03-28T18:36:10.923Z,1.60
2023-03-28T18:38:40.335Z,1.30
2023-03-28T18:41:09.130Z,1.80
2023-03-28T18:43:38.748Z,1.70
2023-03-28T18:46:09.481Z,1.90
2023-03-28T18:50:58.378Z,2.10
2023-03-28T18:53:29.614Z,1.50
2023-03-28T18:55:57.833Z,1.70
2023-03-28T18:58:28.539Z,2.20
2023-03-28T19:00:59.196Z,1.30
2023-03-28T19:03:30.108Z,1.20
2023-03-28T19:06:02.350Z,1.40
2023-03-28T19:08:31.051Z,1.80
2023-03-28T19:11:00.298Z,2.80
2023-03-28T19:13:29.011Z,2.60
2023-03-28T19:16:01.081Z,1.60
2023-03-28T19:18:29.476Z,2.30
2023-03-28T19:20:58.241Z,1.30
2023-03-28T19:23:27.408Z,1.20
2023-03-28T19:25:55.386Z,7.20
2023-03-28T19:28:23.619Z,1.50
2023-03-28T19:31:05.912Z,1.50
2023-03-28T19:33:36.272Z,1.70
2023-03-28T19:36:05.956Z,1.90
2023-03-28T19:38:35.095Z,1.80
2023-03-28T19:41:07.097Z,1.90
2023-03-28T19:43:37.603Z,2.90
2023-03-28T19:46:07.423Z,1.80
2023-03-28T19:48:35.990Z,1.90
2023-03-28T19:51:04.021Z,2.20
2023-03-28T19:53:31.988Z,3.60
2023-03-28T19:56:01.422Z,1.90
2023-03-28T19:58:31.017Z,2.10
2023-03-28T20:01:01.464Z,2.00
2023-03-28T20:03:31.308Z,2.10
2023-03-28T20:06:04.515Z,3.50
2023-03-28T20:11:18.379Z,1.90
2023-03-28T20:13:46.471Z,2.10
2023-03-28T20:16:15.922Z,2.40
2023-03-28T20:18:44.522Z,2.00
2023-03-28T20:21:12.562Z,2.40
2023-03-28T20:23:41.117Z,1.80
2023-03-28T20:26:19.672Z,3.10
2023-03-28T20:28:49.792Z,2.50
2023-03-28T20:31:18.576Z,1.80
2023-03-28T20:33:46.923Z,2.80
2023-03-28T20:36:18.774Z,1.70
2023-03-28T20:38:49.488Z,1.40
2023-03-28T20:41:18.079Z,1.80
2023-03-28T20:43:47.892Z,2.80
2023-03-28T20:46:20.117Z,1.60
2023-03-28T20:48:54.609Z,2.20
2023-03-28T20:51:23.828Z,1.60
2023-03-28T20:53:54.667Z,2.50
2023-03-28T20:56:23.625Z,1.80
2023-03-28T20:58:54.379Z,3.00
2023-03-28T21:01:25.346Z,1.70
2023-03-28T21:03:55.381Z,1.50
2023-03-28T21:06:25.344Z,2.40
2023-03-28T21:08:54.494Z,1.90
2023-03-28T21:11:26.484Z,1.50
2023-03-28T21:13:56.588Z,1.60
2023-03-28T21:16:25.055Z,2.10
2023-03-28T21:21:20.113Z,2.50
2023-03-28T21:23:48.527Z,3.00
2023-03-28T21:26:17.543Z,2.00
2023-03-28T21:28:45.783Z,1.70
2023-03-28T21:31:14.419Z,2.60
2023-03-28T21:33:42.838Z,2.70
2023-03-28T21:36:11.482Z,2.50
2023-03-28T21:38:39.761Z,2.60
2023-03-28T21:41:15.284Z,2.10
2023-03-28T21:43:43.655Z,2.40
2023-03-28T21:46:11.786Z,1.80
2023-03-28T21:48:44.533Z,2.30
2023-03-28T21:51:13.071Z,1.60
2023-03-28T21:53:45.831Z,2.70
2023-03-28T21:56:14.919Z,2.80
2023-03-28T21:58:42.862Z,1.90
2023-03-28T22:01:13.807Z,2.00
2023-03-28T22:03:42.690Z,2.90
2023-03-28T22:06:10.957Z,2.00
2023-03-28T22:08:39.303Z,1.90
2023-03-28T22:11:14.804Z,2.50
2023-03-28T22:13:42.968Z,2.70
2023-03-28T22:16:12.997Z,2.70
2023-03-28T22:18:41.751Z,2.30
2023-03-28T22:21:09.934Z,2.40
2023-03-28T22:23:38.305Z,4.20
2023-03-28T22:26:09.230Z,2.40
2023-03-28T22:28:38.362Z,2.90
2023-03-28T22:31:06.638Z,2.80
2023-03-28T22:33:35.539Z,3.60
2023-03-28T22:36:04.217Z,2.30
2023-03-28T22:38:34.010Z,3.40
2023-03-28T22:41:02.687Z,2.00
2023-03-28T22:43:32.054Z,2.90
2023-03-28T22:45:59.806Z,3.60
2023-03-28T22:48:30.056Z,2.50
2023-03-28T22:51:00.691Z,3.40
2023-03-28T22:53:28.814Z,3.50
2023-03-28T22:55:57.749Z,2.30
2023-03-28T22:58:26.301Z,2.00
2023-03-28T23:00:55.070Z,3.20
2023-03-28T23:03:22.944Z,2.20
2023-03-28T23:05:51.758Z,2.60
2023-03-28T23:08:20.306Z,2.70
2023-03-28T23:10:48.403Z,2.10
2023-03-28T23:13:18.084Z,2.40
2023-03-28T23:15:46.212Z,2.20
2023-03-28T23:18:20.732Z,2.10
2023-03-28T23:20:49.863Z,2.00
2023-03-28T23:23:18.157Z,2.20
2023-03-28T23:25:47.993Z,2.00
2023-03-28T23:28:18.315Z,2.10
2023-03-28T23:30:47.632Z,4.30
2023-03-28T23:33:18.502Z,2.80
2023-03-28T23:35:48.268Z,2.30
2023-03-28T23:38:17.666Z,2.00
2023-03-28T23:40:46.276Z,2.90
2023-03-28T23:43:19.318Z,2.50
2023-03-28T23:45:47.102Z,2.90
2023-03-28T23:48:15.744Z,2.00
2023-03-28T23:50:43.733Z,3.30
2023-03-28T23:53:11.488Z,2.70
2023-03-28T23:55:40.622Z,3.40
2023-03-28T23:58:09.193Z,1.90
